San Francisco, California
Traffic Map
Current Weather Conditions
San Francisco, California
Scattered Clouds
Scattered Clouds
13°
Feels Like: 13°
Wind Chill: 13° Ceiling: Unl
Heat Index: 13° Visibility: 10mi
Dew Point: Wind: 6mph
Humidity: 67% Direction: ° ()
Pressure: 29.94in Gusts: 0mph
Raw Report DataKSFO 190356Z VRB05KT 10SM FEW013 SCT200 13/07 A2994 RMK AO2 SLP138 T01330072
Traffic Incident Summary
Active as of:
Severity:
Category:
InformationThere was an issue retrieving the traffic information for this location. Please try a different location or try again shortly.
Advertisements
At Last! Intellicast now available for iPhone and Android